Time;durP1;ratioP1;P1;durP2;ratioP2;P2;SDS_P1;SDS_P2;PMS_P1;PMS_P2;Temp;Humidity;BMP_temperature;BMP_pressure;BME280_temperature;BME280_humidity;BME280_pressure;Samples;Min_cycle;Max_cycle;Signal;HPM_P1;HPM_P2
2021/06/11 00:00:22;;;;;;;6.73;6.03;;;;;;;;;;5134298;27;20425;-57
2021/06/11 00:02:48;;;;;;;8.63;6.03;;;;;;;;;;5134489;27;20436;-58
2021/06/11 00:05:15;;;;;;;6.20;5.70;;;;;;;;;;5134607;27;20444;-58
2021/06/11 00:07:42;;;;;;;7.97;7.17;;;;;;;;;;5134337;27;20452;-57
2021/06/11 00:10:12;;;;;;;7.50;6.80;;;;;;;;;;5133949;27;20983;-58
2021/06/11 00:12:39;;;;;;;7.90;7.20;;;;;;;;;;5134330;28;20444;-57
2021/06/11 00:15:08;;;;;;;7.77;7.07;;;;;;;;;;5134312;28;20444;-57
2021/06/11 00:17:35;;;;;;;8.93;7.30;;;;;;;;;;5133917;28;20460;-57
2021/06/11 00:20:02;;;;;;;10.07;8.67;;;;;;;;;;5134174;28;20436;-57
2021/06/11 00:22:28;;;;;;;8.40;7.70;;;;;;;;;;5133939;28;20447;-57
2021/06/11 00:24:55;;;;;;;8.40;7.50;;;;;;;;;;5137861;27;20448;-57
2021/06/11 00:27:22;;;;;;;8.30;7.60;;;;;;;;;;5138316;27;20789;-56
2021/06/11 00:29:49;;;;;;;8.13;7.30;;;;;;;;;;5138200;27;20468;-57
2021/06/11 00:32:17;;;;;;;9.63;7.33;;;;;;;;;;5138381;27;20445;-58
2021/06/11 00:34:44;;;;;;;7.77;7.07;;;;;;;;;;5138295;27;20447;-58
2021/06/11 00:37:10;;;;;;;8.70;8.00;;;;;;;;;;5138121;27;20472;-58
2021/06/11 00:39:37;;;;;;;8.90;8.10;;;;;;;;;;5137850;27;20958;-58
2021/06/11 00:42:04;;;;;;;11.20;7.13;;;;;;;;;;5137862;27;20494;-58
2021/06/11 00:44:31;;;;;;;7.80;7.10;;;;;;;;;;5137886;27;20436;-58
2021/06/11 00:46:58;;;;;;;8.43;7.60;;;;;;;;;;5137645;27;21017;-59
2021/06/11 00:49:26;;;;;;;9.17;8.37;;;;;;;;;;5137675;27;20472;-58
2021/06/11 00:51:54;;;;;;;8.67;7.20;;;;;;;;;;5137725;27;20853;-58
2021/06/11 00:54:20;;;;;;;8.10;6.80;;;;;;;;;;5137955;27;20444;-58
2021/06/11 00:56:47;;;;;;;8.13;7.33;;;;;;;;;;5137816;27;20872;-58
2021/06/11 00:59:14;;;;;;;7.87;7.07;;;;;;;;;;5137810;27;20433;-58
2021/06/11 01:01:42;;;;;;;8.30;7.50;;;;;;;;;;5137843;27;20444;-58
2021/06/11 01:04:08;;;;;;;8.07;7.27;;;;;;;;;;5137689;27;20812;-58
2021/06/11 01:06:39;;;;;;;7.43;6.50;;;;;;;;;;5137345;27;20468;-59
2021/06/11 01:09:06;;;;;;;7.60;6.80;;;;;;;;;;5137405;27;20467;-58
2021/06/11 01:11:33;;;;;;;10.33;7.77;;;;;;;;;;5137672;27;20447;-58
2021/06/11 01:14:00;;;;;;;8.20;7.50;;;;;;;;;;5137574;27;20444;-58
2021/06/11 01:16:26;;;;;;;8.13;7.43;;;;;;;;;;5137543;27;20463;-58
2021/06/11 01:18:53;;;;;;;8.00;7.30;;;;;;;;;;5137499;27;20463;-58
2021/06/11 01:21:21;;;;;;;8.10;7.40;;;;;;;;;;5137450;27;20448;-58
2021/06/11 01:24:01;;;;;;;7.70;6.97;;;;;;;;;;5137698;27;20560;-58
2021/06/11 01:26:31;;;;;;;7.67;6.97;;;;;;;;;;5137332;27;20498;-58
2021/06/11 01:29:00;;;;;;;7.50;6.90;;;;;;;;;;5137213;27;20461;-58
2021/06/11 01:31:29;;;;;;;8.10;7.33;;;;;;;;;;5136868;27;20448;-58
2021/06/11 01:33:59;;;;;;;7.97;7.27;;;;;;;;;;5137513;27;20493;-56
2021/06/11 01:36:28;;;;;;;7.97;7.27;;;;;;;;;;5137952;27;20456;-59
2021/06/11 01:38:56;;;;;;;10.13;7.20;;;;;;;;;;5137045;27;20436;-58
2021/06/11 01:41:23;;;;;;;8.07;7.37;;;;;;;;;;5137888;27;20441;-58
2021/06/11 01:43:53;;;;;;;7.30;6.60;;;;;;;;;;5136981;27;20497;-58
2021/06/11 01:46:21;;;;;;;7.53;6.90;;;;;;;;;;5136737;27;20444;-58
2021/06/11 01:48:49;;;;;;;8.30;7.03;;;;;;;;;;5136891;27;20469;-59
2021/06/11 01:51:16;;;;;;;7.77;6.70;;;;;;;;;;5136884;27;20447;-58
2021/06/11 01:53:44;;;;;;;7.40;6.70;;;;;;;;;;5136549;27;20433;-58
2021/06/11 01:56:11;;;;;;;7.17;6.47;;;;;;;;;;5136767;27;20806;-58
2021/06/11 01:58:38;;;;;;;8.30;6.70;;;;;;;;;;5136606;27;20935;-58
2021/06/11 02:01:07;;;;;;;8.67;7.20;;;;;;;;;;5136809;27;20448;-58
2021/06/11 02:03:33;;;;;;;8.20;7.33;;;;;;;;;;5136515;27;20535;-58
2021/06/11 02:06:00;;;;;;;7.60;6.80;;;;;;;;;;5136433;27;20448;-58
2021/06/11 02:08:27;;;;;;;7.03;6.43;;;;;;;;;;5136472;27;20509;-58
2021/06/11 02:10:54;;;;;;;7.70;7.00;;;;;;;;;;5136378;27;20447;-59
2021/06/11 02:13:21;;;;;;;7.53;6.87;;;;;;;;;;5136731;27;20436;-57
2021/06/11 02:15:49;;;;;;;6.90;6.30;;;;;;;;;;5136584;27;20452;-57
2021/06/11 02:18:17;;;;;;;8.00;7.20;;;;;;;;;;5136837;27;20464;-58
2021/06/11 02:20:44;;;;;;;8.63;6.63;;;;;;;;;;5136516;27;20497;-57
2021/06/11 02:23:11;;;;;;;7.80;6.60;;;;;;;;;;5136192;27;20804;-58
2021/06/11 02:25:37;;;;;;;7.73;7.03;;;;;;;;;;5136179;27;20794;-58
2021/06/11 02:28:06;;;;;;;8.40;7.10;;;;;;;;;;5135851;27;20963;-58
2021/06/11 02:30:32;;;;;;;7.63;6.93;;;;;;;;;;5135843;27;20480;-58
2021/06/11 02:32:59;;;;;;;7.20;6.60;;;;;;;;;;5137155;27;20457;-58
2021/06/11 02:35:27;;;;;;;7.50;6.80;;;;;;;;;;5136053;27;20448;-58
2021/06/11 02:37:55;;;;;;;6.90;6.30;;;;;;;;;;5135611;27;20559;-58
2021/06/11 02:40:21;;;;;;;7.20;6.60;;;;;;;;;;5135621;27;20444;-58
2021/06/11 02:42:49;;;;;;;7.07;6.47;;;;;;;;;;5135929;27;20437;-58
2021/06/11 02:45:19;;;;;;;7.53;6.83;;;;;;;;;;5135533;27;20927;-58
2021/06/11 02:47:48;;;;;;;8.47;7.70;;;;;;;;;;5134395;27;20480;-58
2021/06/11 02:50:16;;;;;;;7.43;6.73;;;;;;;;;;5135719;27;20571;-58
2021/06/11 02:52:48;;;;;;;10.37;8.33;;;;;;;;;;5135344;27;20456;-58
2021/06/11 02:55:16;;;;;;;9.43;8.00;;;;;;;;;;5135508;27;20919;-58
2021/06/11 02:57:46;;;;;;;7.97;7.17;;;;;;;;;;5135275;27;20521;-58
2021/06/11 03:00:14;;;;;;;8.40;6.80;;;;;;;;;;5135744;27;20417;-58
2021/06/11 03:02:44;;;;;;;8.13;6.40;;;;;;;;;;5135640;27;20444;-58
2021/06/11 03:05:11;;;;;;;8.70;7.00;;;;;;;;;;5135590;27;20452;-58
2021/06/11 03:07:40;;;;;;;6.80;5.67;;;;;;;;;;5135508;27;20467;-58
2021/06/11 03:10:10;;;;;;;7.20;6.10;;;;;;;;;;5135346;27;20472;-58
2021/06/11 03:12:38;;;;;;;7.20;6.50;;;;;;;;;;5135018;27;20924;-58
2021/06/11 03:15:06;;;;;;;8.60;6.60;;;;;;;;;;5135331;27;20940;-58
2021/06/11 03:17:34;;;;;;;7.07;6.47;;;;;;;;;;5134966;27;20464;-58
2021/06/11 03:20:04;;;;;;;6.57;5.97;;;;;;;;;;5135381;27;20445;-58
2021/06/11 03:22:32;;;;;;;6.83;6.13;;;;;;;;;;5134766;27;20441;-58
2021/06/11 03:24:59;;;;;;;6.80;6.20;;;;;;;;;;5135081;27;20445;-58
2021/06/11 03:27:30;;;;;;;7.53;6.83;;;;;;;;;;5134670;27;20471;-58
2021/06/11 03:30:00;;;;;;;7.60;6.90;;;;;;;;;;5134790;27;20463;-58
2021/06/11 03:32:31;;;;;;;7.67;6.90;;;;;;;;;;5134954;27;20445;-58
2021/06/11 03:35:01;;;;;;;8.40;6.57;;;;;;;;;;5134705;27;20996;-58
2021/06/11 03:37:29;;;;;;;6.63;5.90;;;;;;;;;;5134831;27;20463;-58
2021/06/11 03:39:58;;;;;;;7.47;5.90;;;;;;;;;;5135052;27;20441;-58
2021/06/11 03:42:25;;;;;;;7.27;6.57;;;;;;;;;;5135031;27;20963;-58
2021/06/11 03:44:54;;;;;;;6.40;5.90;;;;;;;;;;5134978;27;20452;-59
2021/06/11 03:47:22;;;;;;;6.63;6.00;;;;;;;;;;5157432;22;20828;-59
2021/06/11 03:49:49;;;;;;;6.13;5.10;;;;;;;;;;5134560;27;20472;-59
2021/06/11 03:52:21;;;;;;;9.30;5.80;;;;;;;;;;5134726;27;20488;-58
2021/06/11 03:54:48;;;;;;;9.40;5.30;;;;;;;;;;5134285;27;20436;-58
2021/06/11 03:57:16;;;;;;;5.90;5.50;;;;;;;;;;5134141;27;21026;-58
2021/06/11 03:59:43;;;;;;;6.13;5.53;;;;;;;;;;5133675;27;20444;-58
2021/06/11 04:02:12;;;;;;;8.63;5.50;;;;;;;;;;5133939;27;20928;-59
2021/06/11 04:08:15;;;;;;;5.57;4.87;;;;;;;;;;5153096;27;21063;-57
2021/06/11 04:10:45;;;;;;;7.03;5.43;;;;;;;;;;5152125;27;20462;-58
2021/06/11 04:13:14;;;;;;;6.77;5.17;;;;;;;;;;5152240;27;20440;-58
2021/06/11 04:15:42;;;;;;;5.80;5.30;;;;;;;;;;5151859;27;20444;-59
2021/06/11 04:18:11;;;;;;;5.47;4.97;;;;;;;;;;5152157;27;20460;-59
2021/06/11 04:20:39;;;;;;;10.83;5.60;;;;;;;;;;5152129;27;20470;-58
2021/06/11 04:23:06;;;;;;;7.00;5.27;;;;;;;;;;5152003;27;20510;-59
2021/06/11 04:25:36;;;;;;;8.30;5.37;;;;;;;;;;5151720;27;20971;-58
2021/06/11 04:28:03;;;;;;;8.90;5.23;;;;;;;;;;5151514;27;20478;-59
2021/06/11 04:30:30;;;;;;;5.23;4.43;;;;;;;;;;5151934;27;20438;-58
2021/06/11 04:32:57;;;;;;;7.03;5.77;;;;;;;;;;5151866;27;20450;-58
2021/06/11 04:35:24;;;;;;;9.00;4.97;;;;;;;;;;5151391;27;20960;-58
2021/06/11 04:37:51;;;;;;;5.30;4.80;;;;;;;;;;5151728;27;20466;-60
2021/06/11 04:40:18;;;;;;;6.40;5.23;;;;;;;;;;5151787;27;20852;-60
2021/06/11 04:42:47;;;;;;;6.33;5.73;;;;;;;;;;5151729;27;20446;-60
2021/06/11 04:45:14;;;;;;;5.93;5.33;;;;;;;;;;5151401;27;20440;-60
2021/06/11 04:47:40;;;;;;;6.17;5.57;;;;;;;;;;5151164;27;20940;-59
2021/06/11 04:50:08;;;;;;;6.50;5.73;;;;;;;;;;5151314;27;20473;-59
2021/06/11 04:52:34;;;;;;;5.13;4.50;;;;;;;;;;5151129;27;20448;-59
2021/06/11 04:55:01;;;;;;;5.43;4.90;;;;;;;;;;5151206;27;20475;-59
2021/06/11 04:57:28;;;;;;;5.50;5.10;;;;;;;;;;5151355;27;20459;-59
2021/06/11 04:59:56;;;;;;;5.20;4.70;;;;;;;;;;5151347;27;20441;-59
2021/06/11 05:02:23;;;;;;;4.97;4.50;;;;;;;;;;5151114;27;20502;-59
2021/06/11 05:04:49;;;;;;;5.63;4.73;;;;;;;;;;5151150;27;20446;-59
2021/06/11 05:07:16;;;;;;;5.10;4.60;;;;;;;;;;5150949;27;20485;-59
2021/06/11 05:09:43;;;;;;;5.57;5.07;;;;;;;;;;5151140;27;20447;-59
2021/06/11 05:12:10;;;;;;;5.20;4.60;;;;;;;;;;5151072;27;20460;-59
2021/06/11 05:14:37;;;;;;;5.53;4.77;;;;;;;;;;5150579;27;20993;-59
2021/06/11 05:17:05;;;;;;;5.70;5.23;;;;;;;;;;5150665;27;20466;-58
2021/06/11 05:19:32;;;;;;;5.53;4.63;;;;;;;;;;5137171;27;20447;-58
2021/06/11 05:21:58;;;;;;;5.13;4.63;;;;;;;;;;5137085;27;20447;-59
2021/06/11 05:24:25;;;;;;;6.43;5.47;;;;;;;;;;5136877;27;20447;-58
2021/06/11 05:26:52;;;;;;;6.43;4.50;;;;;;;;;;5136401;27;20525;-60
2021/06/11 05:29:19;;;;;;;5.47;4.93;;;;;;;;;;5136479;27;20455;-58
2021/06/11 05:31:46;;;;;;;5.20;4.70;;;;;;;;;;5136465;27;20814;-57
2021/06/11 05:34:14;;;;;;;5.83;5.10;;;;;;;;;;5136721;27;20449;-57
2021/06/11 05:36:40;;;;;;;6.70;4.90;;;;;;;;;;5136539;27;20911;-58
2021/06/11 05:39:07;;;;;;;6.03;4.93;;;;;;;;;;5136345;27;20935;-59
2021/06/11 05:41:34;;;;;;;5.43;5.03;;;;;;;;;;5136962;27;20452;-59
2021/06/11 05:44:01;;;;;;;6.67;5.67;;;;;;;;;;5136382;27;20818;-58
2021/06/11 05:46:28;;;;;;;7.23;5.80;;;;;;;;;;5136037;27;20496;-58
2021/06/11 05:48:54;;;;;;;5.40;4.90;;;;;;;;;;5136039;27;20580;-58
2021/06/11 05:51:23;;;;;;;5.17;4.67;;;;;;;;;;5136378;27;20450;-58
2021/06/11 05:53:49;;;;;;;6.17;5.67;;;;;;;;;;5136297;27;20496;-58
2021/06/11 05:56:16;;;;;;;5.17;4.60;;;;;;;;;;5136383;27;20438;-58
2021/06/11 05:58:43;;;;;;;5.77;5.27;;;;;;;;;;5135905;27;20462;-58
2021/06/11 06:01:10;;;;;;;5.10;4.60;;;;;;;;;;5136643;27;20444;-59
2021/06/11 06:03:36;;;;;;;5.63;4.80;;;;;;;;;;5135658;27;20451;-58
2021/06/11 06:06:03;;;;;;;7.23;4.90;;;;;;;;;;5135889;27;20461;-59
2021/06/11 06:08:31;;;;;;;6.83;5.00;;;;;;;;;;5136100;27;20463;-58
2021/06/11 06:10:58;;;;;;;5.00;4.57;;;;;;;;;;5135990;27;20445;-59
2021/06/11 06:13:25;;;;;;;6.33;5.07;;;;;;;;;;5136247;27;20507;-60
2021/06/11 06:15:54;;;;;;;7.20;5.03;;;;;;;;;;5135668;27;21014;-59
2021/06/11 06:18:20;;;;;;;6.43;4.70;;;;;;;;;;5135885;27;20481;-60
2021/06/11 06:20:47;;;;;;;5.07;4.67;;;;;;;;;;5136044;27;20445;-60
2021/06/11 06:23:14;;;;;;;6.10;4.50;;;;;;;;;;5135869;27;20451;-61
2021/06/11 06:25:42;;;;;;;6.00;3.97;;;;;;;;;;5136131;27;20855;-58
2021/06/11 06:28:09;;;;;;;5.20;4.40;;;;;;;;;;5135750;27;20534;-59
2021/06/11 06:30:36;;;;;;;5.37;4.57;;;;;;;;;;5135410;27;20483;-59
2021/06/11 06:33:03;;;;;;;7.40;5.47;;;;;;;;;;5135991;27;20438;-59
2021/06/11 06:35:29;;;;;;;8.00;5.43;;;;;;;;;;5135914;27;20518;-59
2021/06/11 06:37:56;;;;;;;5.50;4.50;;;;;;;;;;5134871;27;20961;-59
2021/06/11 06:40:23;;;;;;;6.60;4.90;;;;;;;;;;5135303;27;20802;-59
2021/06/11 06:42:51;;;;;;;6.10;5.00;;;;;;;;;;5135313;27;20439;-59
2021/06/11 06:45:19;;;;;;;6.60;5.90;;;;;;;;;;5135259;27;20443;-60
2021/06/11 06:47:47;;;;;;;5.43;5.03;;;;;;;;;;5135094;27;20485;-59
2021/06/11 06:50:15;;;;;;;5.10;4.37;;;;;;;;;;5135142;27;20826;-59
2021/06/11 06:52:41;;;;;;;7.87;6.00;;;;;;;;;;5134978;27;20474;-59
2021/06/11 06:55:09;;;;;;;5.70;5.10;;;;;;;;;;5134773;27;20445;-59
2021/06/11 06:57:36;;;;;;;5.83;5.17;;;;;;;;;;5135090;27;20456;-59
2021/06/11 07:00:04;;;;;;;5.50;5.00;;;;;;;;;;5135028;27;20491;-59
2021/06/11 07:02:31;;;;;;;7.97;4.90;;;;;;;;;;5134926;27;20448;-59
2021/06/11 07:04:58;;;;;;;4.90;4.37;;;;;;;;;;5134864;27;20446;-58
2021/06/11 07:07:25;;;;;;;6.83;5.00;;;;;;;;;;5134662;27;20482;-59
2021/06/11 07:09:51;;;;;;;7.60;5.13;;;;;;;;;;5135074;27;20440;-59
2021/06/11 07:12:18;;;;;;;5.07;4.67;;;;;;;;;;5135214;27;20455;-58
2021/06/11 07:14:45;;;;;;;5.10;4.10;;;;;;;;;;5135284;27;20446;-59
2021/06/11 07:17:13;;;;;;;5.20;4.07;;;;;;;;;;5134529;27;20508;-58
2021/06/11 07:19:40;;;;;;;4.60;4.20;;;;;;;;;;5134409;27;20435;-58
2021/06/11 07:22:07;;;;;;;4.27;3.80;;;;;;;;;;5134602;27;20444;-58
2021/06/11 07:24:35;;;;;;;4.60;3.60;;;;;;;;;;5135276;27;20442;-59
2021/06/11 07:27:02;;;;;;;4.67;4.20;;;;;;;;;;5135458;27;20495;-59
2021/06/11 07:29:30;;;;;;;3.90;3.60;;;;;;;;;;5135902;27;20454;-58
2021/06/11 07:31:57;;;;;;;6.93;3.93;;;;;;;;;;5135077;27;20446;-58
2021/06/11 07:34:26;;;;;;;4.50;4.20;;;;;;;;;;5135202;27;20456;-58
2021/06/11 07:36:53;;;;;;;4.70;4.30;;;;;;;;;;5134913;27;20959;-59
2021/06/11 07:39:20;;;;;;;7.00;4.37;;;;;;;;;;5134777;27;20449;-58
2021/06/11 07:41:49;;;;;;;5.30;4.83;;;;;;;;;;5134169;27;20811;-60
2021/06/11 07:44:16;;;;;;;5.20;4.70;;;;;;;;;;5134285;27;20455;-59
2021/06/11 07:46:43;;;;;;;4.23;3.93;;;;;;;;;;5134108;27;20477;-60
2021/06/11 07:49:12;;;;;;;7.03;4.23;;;;;;;;;;5134122;27;20928;-58
2021/06/11 07:51:40;;;;;;;5.97;4.20;;;;;;;;;;5134685;27;20453;-59
2021/06/11 07:54:08;;;;;;;3.57;3.27;;;;;;;;;;5136873;27;20480;-58
2021/06/11 07:56:36;;;;;;;6.97;4.40;;;;;;;;;;5135376;27;20516;-58
2021/06/11 07:59:03;;;;;;;4.30;3.93;;;;;;;;;;5135344;27;20997;-58
2021/06/11 08:01:31;;;;;;;4.53;4.20;;;;;;;;;;5135111;27;20428;-58
2021/06/11 08:03:57;;;;;;;5.30;4.40;;;;;;;;;;5135110;27;20904;-60
2021/06/11 08:06:24;;;;;;;4.97;4.57;;;;;;;;;;5134837;28;20465;-58
2021/06/11 08:08:52;;;;;;;4.77;4.33;;;;;;;;;;5134848;28;20503;-62
2021/06/11 08:11:19;;;;;;;4.87;4.47;;;;;;;;;;5134383;28;20447;-60
2021/06/11 08:13:46;;;;;;;4.80;4.40;;;;;;;;;;5133700;28;20450;-60
2021/06/11 08:16:13;;;;;;;5.50;4.23;;;;;;;;;;5134036;28;20440;-59
2021/06/11 08:18:40;;;;;;;4.70;4.30;;;;;;;;;;5133777;28;20579;-59
2021/06/11 08:21:07;;;;;;;6.60;5.20;;;;;;;;;;5133446;28;20473;-59
2021/06/11 08:23:33;;;;;;;4.90;4.40;;;;;;;;;;5133770;28;20441;-58
2021/06/11 08:26:02;;;;;;;5.13;4.40;;;;;;;;;;5133499;28;20449;-59
2021/06/11 08:28:28;;;;;;;4.97;4.50;;;;;;;;;;5133693;28;20491;-59
2021/06/11 08:30:55;;;;;;;5.30;4.77;;;;;;;;;;5133518;28;20443;-59
2021/06/11 08:33:22;;;;;;;5.50;5.10;;;;;;;;;;5133435;28;20491;-59
2021/06/11 08:35:49;;;;;;;7.87;6.23;;;;;;;;;;5133188;28;20846;-59
2021/06/11 08:38:15;;;;;;;6.67;6.07;;;;;;;;;;5133555;28;20519;-60
2021/06/11 08:40:42;;;;;;;5.47;5.07;;;;;;;;;;5133295;28;20456;-59
2021/06/11 08:43:10;;;;;;;6.00;5.50;;;;;;;;;;5133747;28;20450;-59
2021/06/11 08:45:37;;;;;;;6.00;5.50;;;;;;;;;;5133321;28;20446;-59
2021/06/11 08:48:04;;;;;;;5.60;5.20;;;;;;;;;;5133498;28;20488;-60
2021/06/11 08:50:32;;;;;;;5.87;5.20;;;;;;;;;;5133502;28;20801;-59
2021/06/11 08:53:00;;;;;;;7.33;5.77;;;;;;;;;;5134038;27;20552;-58
2021/06/11 08:55:27;;;;;;;6.10;5.60;;;;;;;;;;5136949;27;20441;-59
2021/06/11 08:57:53;;;;;;;6.23;5.73;;;;;;;;;;5137925;27;20454;-58
2021/06/11 09:00:22;;;;;;;5.90;4.93;;;;;;;;;;5137327;27;20494;-58
2021/06/11 09:03:04;;;;;;;6.60;6.00;;;;;;;;;;5137556;27;20450;-59
2021/06/11 09:05:30;;;;;;;11.50;6.20;;;;;;;;;;5134852;27;20517;-59
2021/06/11 09:08:11;;;;;;;8.20;5.80;;;;;;;;;;5136290;27;20864;-58
2021/06/11 09:10:38;;;;;;;7.97;7.27;;;;;;;;;;5137082;27;20448;-61
2021/06/11 09:13:04;;;;;;;8.60;7.80;;;;;;;;;;5136820;27;20445;-56
2021/06/11 09:15:33;;;;;;;10.40;7.17;;;;;;;;;;5136572;27;20556;-60
2021/06/11 09:17:59;;;;;;;7.13;6.43;;;;;;;;;;5136620;27;20465;-60
2021/06/11 09:20:28;;;;;;;7.27;6.67;;;;;;;;;;5136790;27;20459;-60
2021/06/11 09:22:56;;;;;;;6.93;6.13;;;;;;;;;;5136656;27;20444;-60
2021/06/11 09:25:24;;;;;;;6.40;5.90;;;;;;;;;;5136459;27;20790;-58
2021/06/11 09:27:51;;;;;;;7.20;6.60;;;;;;;;;;5136484;27;20479;-59
2021/06/11 09:30:18;;;;;;;7.17;6.47;;;;;;;;;;5136622;27;20456;-57
2021/06/11 09:32:56;;;;;;;8.10;7.40;;;;;;;;;;5136657;27;20444;-58
2021/06/11 09:35:29;;;;;;;7.23;6.50;;;;;;;;;;5137026;27;20438;-58
2021/06/11 09:38:07;;;;;;;7.40;6.70;;;;;;;;;;5136610;27;20501;-58
2021/06/11 09:40:34;;;;;;;8.57;7.70;;;;;;;;;;5136489;27;20433;-60
2021/06/11 09:43:02;;;;;;;7.90;7.20;;;;;;;;;;5136065;27;20450;-60
2021/06/11 09:45:29;;;;;;;9.17;8.17;;;;;;;;;;5136647;27;20551;-59
2021/06/11 09:47:57;;;;;;;8.13;7.53;;;;;;;;;;5147175;22;20591;-58
2021/06/11 09:50:25;;;;;;;8.70;7.80;;;;;;;;;;5055200;28;20423;-58
2021/06/11 09:53:00;;;;;;;8.47;7.77;;;;;;;;;;5055369;28;20495;-59
2021/06/11 09:55:28;;;;;;;7.17;6.57;;;;;;;;;;5055068;28;20452;-57
2021/06/11 09:58:13;;;;;;;9.20;8.40;;;;;;;;;;5054950;28;20541;-58
2021/06/11 10:00:41;;;;;;;7.63;6.93;;;;;;;;;;5055185;28;20433;-58
2021/06/11 10:03:13;;;;;;;9.13;7.93;;;;;;;;;;5054584;28;20450;-56
2021/06/11 10:05:41;;;;;;;8.37;7.63;;;;;;;;;;5054443;28;20495;-58
2021/06/11 10:08:08;;;;;;;8.53;7.23;;;;;;;;;;5055177;28;20482;-59
2021/06/11 10:10:35;;;;;;;7.57;6.53;;;;;;;;;;5054796;28;20451;-59
2021/06/11 10:13:02;;;;;;;9.37;8.57;;;;;;;;;;5054746;28;21010;-57
2021/06/11 10:15:31;;;;;;;11.50;10.60;;;;;;;;;;5054739;28;20501;-60
2021/06/11 10:17:58;;;;;;;9.20;8.27;;;;;;;;;;5054607;28;20459;-58
2021/06/11 10:20:26;;;;;;;8.50;7.80;;;;;;;;;;5054707;28;20445;-58
2021/06/11 10:22:53;;;;;;;8.33;7.53;;;;;;;;;;5054071;28;20450;-58
2021/06/11 10:25:20;;;;;;;9.63;6.93;;;;;;;;;;5054810;28;20452;-58
2021/06/11 10:27:47;;;;;;;7.40;6.47;;;;;;;;;;5054345;28;20990;-59
2021/06/11 10:30:14;;;;;;;8.90;8.10;;;;;;;;;;5054387;28;20829;-58
2021/06/11 10:32:45;;;;;;;8.10;7.43;;;;;;;;;;5055119;28;20448;-58
2021/06/11 10:35:13;;;;;;;8.83;7.90;;;;;;;;;;5054164;28;20533;-59
2021/06/11 10:37:42;;;;;;;11.30;8.23;;;;;;;;;;5054425;28;20473;-59
2021/06/11 10:40:30;;;;;;;8.50;7.77;;;;;;;;;;5054179;28;20559;-58
2021/06/11 10:43:17;;;;;;;10.03;9.13;;;;;;;;;;5049679;28;20538;-59
2021/06/11 10:45:45;;;;;;;9.20;7.10;;;;;;;;;;5053926;28;20443;-59
2021/06/11 10:48:12;;;;;;;9.00;8.10;;;;;;;;;;5053789;28;20493;-59
2021/06/11 10:50:39;;;;;;;9.07;8.23;;;;;;;;;;5053746;28;20458;-59
2021/06/11 10:53:11;;;;;;;9.60;8.67;;;;;;;;;;5053968;28;20454;-59
2021/06/11 10:55:44;;;;;;;7.80;7.10;;;;;;;;;;5054112;28;20475;-60
2021/06/11 10:58:35;;;;;;;9.63;8.80;;;;;;;;;;5054172;28;20530;-58
2021/06/11 11:01:20;;;;;;;8.07;7.37;;;;;;;;;;5038615;28;20459;-57
2021/06/11 11:03:49;;;;;;;7.80;6.93;;;;;;;;;;5053482;28;20495;-58
2021/06/11 11:06:32;;;;;;;7.30;6.63;;;;;;;;;;5053290;28;20448;-57
2021/06/11 11:09:01;;;;;;;7.90;6.93;;;;;;;;;;5053277;28;20466;-58
2021/06/11 11:11:29;;;;;;;6.93;6.30;;;;;;;;;;5053674;28;20824;-58
2021/06/11 11:13:57;;;;;;;7.47;6.83;;;;;;;;;;5053694;28;20450;-58
2021/06/11 11:16:24;;;;;;;7.63;6.93;;;;;;;;;;5052851;28;20458;-59
2021/06/11 11:18:52;;;;;;;7.93;7.13;;;;;;;;;;5053148;28;20811;-58
2021/06/11 11:21:26;;;;;;;8.83;7.30;;;;;;;;;;5053685;28;20505;-56
2021/06/11 11:23:53;;;;;;;8.00;7.30;;;;;;;;;;5053831;28;20830;-58
2021/06/11 11:26:20;;;;;;;7.37;6.77;;;;;;;;;;5053415;28;20462;-59
2021/06/11 11:28:47;;;;;;;7.23;6.53;;;;;;;;;;5052870;28;20492;-59
2021/06/11 11:31:15;;;;;;;7.17;6.60;;;;;;;;;;5053305;28;20518;-58
2021/06/11 11:33:42;;;;;;;6.80;5.90;;;;;;;;;;5053224;28;20448;-59
2021/06/11 11:36:11;;;;;;;6.20;5.70;;;;;;;;;;5053101;28;20572;-58
2021/06/11 11:38:37;;;;;;;5.27;4.77;;;;;;;;;;5053104;28;20471;-58
2021/06/11 11:41:04;;;;;;;5.27;4.80;;;;;;;;;;5053116;28;20495;-57
2021/06/11 11:43:31;;;;;;;5.80;5.30;;;;;;;;;;5053244;28;20445;-58
2021/06/11 11:45:58;;;;;;;5.00;4.60;;;;;;;;;;5053012;28;20455;-58
2021/06/11 11:48:26;;;;;;;5.03;4.63;;;;;;;;;;5052863;28;20488;-60
2021/06/11 11:50:53;;;;;;;5.70;5.10;;;;;;;;;;5052729;28;20458;-60
2021/06/11 11:53:24;;;;;;;5.90;5.40;;;;;;;;;;5052905;28;20456;-59
2021/06/11 11:55:51;;;;;;;5.57;5.00;;;;;;;;;;5052869;28;20443;-60
2021/06/11 11:58:17;;;;;;;6.27;5.53;;;;;;;;;;5052338;28;20467;-59
2021/06/11 12:00:44;;;;;;;6.10;4.17;;;;;;;;;;5052732;28;20457;-58
2021/06/11 12:03:11;;;;;;;5.47;4.40;;;;;;;;;;5052307;28;20455;-60
2021/06/11 12:05:37;;;;;;;5.10;4.70;;;;;;;;;;5052564;28;20519;-60
2021/06/11 12:08:04;;;;;;;4.30;3.90;;;;;;;;;;5052291;28;20489;-59
2021/06/11 12:10:33;;;;;;;3.90;3.57;;;;;;;;;;5052223;28;20998;-58
2021/06/11 12:12:59;;;;;;;5.00;4.60;;;;;;;;;;5053452;28;20448;-59
2021/06/11 12:15:26;;;;;;;5.30;4.67;;;;;;;;;;5052855;28;20868;-58
2021/06/11 12:17:53;;;;;;;6.37;5.20;;;;;;;;;;5051933;28;20595;-60
2021/06/11 12:20:20;;;;;;;5.07;4.67;;;;;;;;;;5052706;28;20450;-59
2021/06/11 12:22:47;;;;;;;5.33;4.87;;;;;;;;;;5051965;28;20439;-59
2021/06/11 12:25:14;;;;;;;4.63;4.20;;;;;;;;;;5052484;28;20433;-59
2021/06/11 12:27:42;;;;;;;5.83;5.33;;;;;;;;;;5052350;28;20540;-57
2021/06/11 12:30:09;;;;;;;4.33;3.80;;;;;;;;;;5056176;28;20499;-60
2021/06/11 12:32:36;;;;;;;4.97;4.47;;;;;;;;;;5056453;28;20450;-60
2021/06/11 12:35:03;;;;;;;4.57;3.70;;;;;;;;;;5056391;28;20450;-60
2021/06/11 12:37:29;;;;;;;4.27;3.87;;;;;;;;;;5055947;28;20901;-60
2021/06/11 12:39:56;;;;;;;3.47;3.13;;;;;;;;;;5055838;28;20940;-59
2021/06/11 12:42:29;;;;;;;4.00;3.47;;;;;;;;;;5056000;28;20538;-61
2021/06/11 12:44:57;;;;;;;4.20;3.80;;;;;;;;;;5056447;28;20438;-60
2021/06/11 12:47:24;;;;;;;3.30;3.07;;;;;;;;;;5056002;28;20507;-58
2021/06/11 12:49:51;;;;;;;3.83;3.33;;;;;;;;;;5055827;28;20465;-60
2021/06/11 12:52:17;;;;;;;4.33;3.30;;;;;;;;;;5056030;28;20444;-59
2021/06/11 12:54:44;;;;;;;3.70;3.13;;;;;;;;;;5055859;28;20512;-59
2021/06/11 12:57:14;;;;;;;7.73;3.20;;;;;;;;;;5056064;28;20445;-59
2021/06/11 12:59:44;;;;;;;3.43;3.07;;;;;;;;;;5055898;28;20554;-58
2021/06/11 13:02:13;;;;;;;3.27;2.80;;;;;;;;;;5055739;28;20447;-58
2021/06/11 13:04:39;;;;;;;3.57;2.87;;;;;;;;;;5055347;28;20544;-59
2021/06/11 13:07:06;;;;;;;3.00;2.80;;;;;;;;;;5055449;28;20480;-60
2021/06/11 13:09:33;;;;;;;3.47;3.23;;;;;;;;;;5055584;28;21118;-59
2021/06/11 13:12:00;;;;;;;3.50;3.20;;;;;;;;;;5055761;28;20508;-59
2021/06/11 13:14:27;;;;;;;3.03;2.73;;;;;;;;;;5055715;28;20440;-58
2021/06/11 13:16:54;;;;;;;3.50;2.80;;;;;;;;;;5055560;28;20501;-61
2021/06/11 13:19:23;;;;;;;3.60;3.30;;;;;;;;;;5055577;28;20469;-59
2021/06/11 13:21:49;;;;;;;3.80;3.50;;;;;;;;;;5055653;28;20451;-60
2021/06/11 13:24:16;;;;;;;4.63;3.43;;;;;;;;;;5055346;28;20795;-57
2021/06/11 13:26:43;;;;;;;4.30;2.77;;;;;;;;;;5055073;28;20462;-59
2021/06/11 13:29:10;;;;;;;3.90;3.37;;;;;;;;;;5054723;28;20500;-60
2021/06/11 13:31:38;;;;;;;4.03;3.03;;;;;;;;;;5055320;28;20452;-60
2021/06/11 13:34:05;;;;;;;3.20;2.90;;;;;;;;;;5055977;28;20446;-60
2021/06/11 13:36:33;;;;;;;3.50;3.00;;;;;;;;;;5055177;28;20927;-59
2021/06/11 13:39:00;;;;;;;3.93;2.93;;;;;;;;;;5054529;28;20460;-59
2021/06/11 13:41:27;;;;;;;4.13;3.27;;;;;;;;;;5055312;28;20451;-59
2021/06/11 13:43:55;;;;;;;4.03;3.27;;;;;;;;;;5055391;28;20806;-59
2021/06/11 13:46:21;;;;;;;4.23;3.10;;;;;;;;;;5055316;28;20447;-59
2021/06/11 13:48:48;;;;;;;3.00;2.70;;;;;;;;;;5054984;28;20995;-60
2021/06/11 13:51:15;;;;;;;3.13;2.60;;;;;;;;;;5054974;28;20476;-60
2021/06/11 13:53:43;;;;;;;3.37;2.30;;;;;;;;;;5055083;28;20455;-59
2021/06/11 13:56:10;;;;;;;3.90;2.77;;;;;;;;;;5054677;28;20455;-60
2021/06/11 13:58:37;;;;;;;3.30;2.43;;;;;;;;;;5055039;28;20486;-58
2021/06/11 14:01:05;;;;;;;3.67;2.50;;;;;;;;;;5054683;28;20936;-59
2021/06/11 14:03:31;;;;;;;3.43;2.63;;;;;;;;;;5054356;28;20896;-60
2021/06/11 14:05:58;;;;;;;3.03;2.47;;;;;;;;;;5054636;28;20866;-59
2021/06/11 14:08:25;;;;;;;3.50;2.57;;;;;;;;;;5054366;28;20988;-59
2021/06/11 14:10:54;;;;;;;2.63;2.40;;;;;;;;;;5054635;28;20501;-59
2021/06/11 14:13:21;;;;;;;3.33;2.10;;;;;;;;;;5054385;28;20456;-60
2021/06/11 14:15:48;;;;;;;2.67;1.90;;;;;;;;;;5054548;28;20455;-60
2021/06/11 14:18:15;;;;;;;2.90;2.67;;;;;;;;;;5054318;28;20462;-59
2021/06/11 14:20:42;;;;;;;6.20;3.00;;;;;;;;;;5054049;28;20460;-59
2021/06/11 14:23:09;;;;;;;2.90;2.70;;;;;;;;;;5054181;28;20503;-59
2021/06/11 14:25:39;;;;;;;3.33;3.00;;;;;;;;;;5054229;28;20447;-57
2021/06/11 14:28:07;;;;;;;3.23;2.93;;;;;;;;;;5054341;28;20487;-60
2021/06/11 14:30:34;;;;;;;4.40;3.13;;;;;;;;;;5054459;28;20447;-59
2021/06/11 14:33:00;;;;;;;3.30;2.53;;;;;;;;;;5054576;28;20451;-59
2021/06/11 14:35:30;;;;;;;3.03;2.73;;;;;;;;;;5054468;28;20455;-59
2021/06/11 14:37:57;;;;;;;3.60;2.40;;;;;;;;;;5054408;28;20595;-58
2021/06/11 14:40:24;;;;;;;3.90;3.00;;;;;;;;;;5054788;28;20535;-55
2021/06/11 14:42:51;;;;;;;5.43;2.73;;;;;;;;;;5054014;28;20451;-58
2021/06/11 14:45:19;;;;;;;4.73;2.60;;;;;;;;;;5054346;28;20489;-58
2021/06/11 14:47:46;;;;;;;3.00;2.70;;;;;;;;;;5053374;28;20546;-58
2021/06/11 14:50:13;;;;;;;2.60;2.40;;;;;;;;;;5053425;28;20430;-59